Flight Track Log - Related Links

Times and Time Zones

All times are in EDT time to prevent confusion due to time zone crossing. See the WBR2623 flight status page for this flight to view local times or setup timezone preferences in your user account.

Time Position Orientation Groundspeed Altitude Reporting Facility
EDT Latitude Longitude Course Direction KTS MPH feet Rate Location/Type
Mon 09:18:12 AM 41.9333 -87.9333 270° West 109 125 1,700  Level Chicago TRACON
Mon 09:19:12 AM 41.9333 -87.9667 270° West 105 121 2,700 950 Climbing Chicago TRACON
Mon 09:20:12 AM 41.9167 -88.0000 236° Southwest 108 124 3,600 793 Climbing Chicago TRACON
Mon 09:21:13 AM 41.9167 -88.0333 270° West 116 133 4,300 744 Climbing Chicago TRACON
Mon 09:22:13 AM 41.9167 -88.0833 270° West 112 129 5,100 800 Climbing Chicago TRACON
Mon 09:23:00 AM 41.9667 -88.1700 270° West  Level FlightAware Approximate
Mon 09:23:13 AM 41.9167 -88.1167 270° West 113 130 5,900  Level Chicago TRACON
Mon 09:24:09 AM 41.9258 -88.1553 288° West 116 133 6,200 661 Climbing Chicago Center
Mon 09:25:11 AM 41.9161 -88.2086 256° West 121 139 7,200 774 Climbing Chicago Center
Mon 09:26:13 AM 41.9111 -88.2547 262° West 125 144 7,800 435 Climbing Chicago Center
Mon 09:27:15 AM 41.9044 -88.3039 260° West 133 153 8,100 145 Climbing Chicago Center
Mon 09:28:17 AM 41.8942 -88.3589 256° West 150 173 8,100 -48 Level Chicago Center
Mon 09:29:19 AM 41.8981 -88.4139 275° West 151 174 8,000 -48 Descending Chicago Center
Mon 09:30:22 AM 41.9111 -88.4744 286° West 146 168 8,000 -48 Level Chicago Center
Mon 09:31:24 AM 41.9069 -88.5294 264° West 149 171 7,900 -48 Descending Chicago Center
Mon 09:32:26 AM 41.9036 -88.5819 265° West 145 167 7,900  Level Chicago Center
Mon 09:33:28 AM 41.9008 -88.6358 266° West 143 165 7,900  Level Chicago Center
Mon 09:34:30 AM 41.8972 -88.6894 265° West 144 166 7,900  Level Chicago Center
Mon 09:35:32 AM 41.8931 -88.7525 265° West 143 165 7,900  Level Chicago Center
Mon 09:36:34 AM 41.8878 -88.8050 262° West 144 166 7,900  Level Chicago Center
Mon 09:37:36 AM 41.8722 -88.8525 246° West 142 163 7,900  Level Chicago Center
Mon 09:38:38 AM 41.8503 -88.8994 238° Southwest 147 169 7,900  Level Chicago Center
Mon 09:39:40 AM 41.8300 -88.9444 239° Southwest 145 167 7,900 48 Level Chicago Center
Mon 09:40:42 AM 41.8047 -89.0011 239° Southwest 148 170 8,000  Climbing Chicago Center
Mon 09:41:45 AM 41.7844 -89.0464 239° Southwest 145 167 7,900 -48 Descending Chicago Center
Mon 09:42:47 AM 41.7633 -89.0931 239° Southwest 147 169 7,900  Level Chicago Center
Mon 09:43:49 AM 41.7433 -89.1397 240° Southwest 146 168 7,900 48 Level Chicago Center
Mon 09:44:51 AM 41.7233 -89.1850 239° Southwest 144 166 8,000 48 Climbing Chicago Center
Mon 09:45:53 AM 41.6989 -89.2394 239° Southwest 145 167 8,000 -48 Level Chicago Center
Mon 09:46:55 AM 41.6756 -89.2828 234° Southwest 144 166 7,900 -48 Descending Chicago Center
Mon 09:47:57 AM 41.6550 -89.3283 239° Southwest 144 166 7,900  Level Chicago Center
Mon 09:48:59 AM 41.6328 -89.3736 237° Southwest 145 167 7,900  Level Chicago Center
Mon 09:50:01 AM 41.6122 -89.4183 238° Southwest 144 166 7,900 48 Level Chicago Center
Mon 09:51:03 AM 41.5881 -89.4714 239° Southwest 141 162 8,000 48 Climbing Chicago Center
Mon 09:52:05 AM 41.5653 -89.5147 235° Southwest 143 165 8,000 -48 Level Chicago Center
Mon 09:53:08 AM 41.5467 -89.5558 239° Southwest 144 166 7,900  Descending Chicago Center
Mon 09:55:12 AM 41.5000 -89.6539 238° Southwest 142 163 8,000  Climbing Chicago Center
Mon 09:56:14 AM 41.4797 -89.6986 239° Southwest 142 163 7,900 -48 Descending Chicago Center
Mon 09:57:16 AM 41.4589 -89.7419 237° Southwest 141 162 7,900 48 Level Chicago Center
Mon 09:58:18 AM 41.4383 -89.7878 239° Southwest 143 165 8,000  Climbing Chicago Center
Mon 09:59:20 AM 41.4128 -89.8419 238° Southwest 144 166 7,900  Descending Chicago Center
Mon 10:00:22 AM 41.3922 -89.8853 238° Southwest 140 161 8,000 48 Climbing Chicago Center
Mon 10:01:24 AM 41.3703 -89.9300 237° Southwest 144 166 8,000  Level Chicago Center
Mon 10:02:26 AM 41.3486 -89.9725 236° Southwest 143 165 8,000 -48 Level Chicago Center
Mon 10:03:28 AM 41.3250 -90.0169 235° Southwest 146 168 7,900 -48 Descending Chicago Center
Mon 10:04:31 AM 41.3036 -90.0619 238° Southwest 145 167 7,900 48 Level Chicago Center
Mon 10:05:33 AM 41.2781 -90.1161 238° Southwest 146 168 8,000 48 Climbing Chicago Center
Mon 10:06:35 AM 41.2564 -90.1592 236° Southwest 142 163 8,000  Level Chicago Center
Mon 10:07:37 AM 41.2333 -90.2031 235° Southwest 145 167 8,000  Level Chicago Center
Mon 10:08:39 AM 41.2122 -90.2461 237° Southwest 142 163 8,000  Level Chicago Center
Mon 10:10:00 AM 41.1851 -90.3084 240° Southwest  Level FlightAware Approximate
Mon 10:10:43 AM 41.1683 -90.3369 240° Southwest 145 167 8,000  Level Chicago Center
Mon 10:11:45 AM 41.1450 -90.3892 239° Southwest 139 160 7,900 -48 Descending Chicago Center
Mon 10:12:47 AM 41.1214 -90.4336 235° Southwest 145 167 7,900 48 Level Chicago Center
Mon 10:13:49 AM 41.1000 -90.4781 237° Southwest 143 165 8,000 97 Climbing Chicago Center
Mon 10:14:51 AM 41.0781 -90.5217 236° Southwest 143 165 8,100 48 Climbing Chicago Center
Mon 10:15:53 AM 41.0519 -90.5703 235° Southwest 141 162 8,100 -96 Level Chicago Center
Mon 10:16:56 AM 41.0286 -90.6128 234° Southwest 142 163 7,900 -432 Descending Chicago Center
Mon 10:17:58 AM 41.0025 -90.6592 233° Southwest 152 175 7,200 -726 Descending Chicago Center
Mon 10:19:00 AM 40.9733 -90.7108 233° Southwest 165 190 6,400 -677 Descending Chicago Center
Mon 10:20:02 AM 40.9428 -90.7589 230° Southwest 169 194 5,800 -484 Descending Chicago Center
Mon 10:21:04 AM 40.9189 -90.8108 239° Southwest 169 194 5,400 -581 Descending Chicago Center
Mon 10:22:06 AM 40.8881 -90.8708 236° Southwest 167 192 4,600 -629 Descending Chicago Center
Mon 10:23:08 AM 40.8606 -90.9217 234° Southwest 169 194 4,100 -532 Descending Chicago Center
Mon 10:24:10 AM 40.8286 -90.9689 228° Southwest 170 196 3,500 -677 Descending Chicago Center
Mon 10:25:12 AM 40.7967 -91.0111 225° Southwest 167 192 2,700 -823 Descending Chicago Center
Mon 10:26:14 AM 40.7675 -91.0558 229° Southwest 165 190 1,800 -919 Descending Chicago Center
Mon 10:27:16 AM 40.7767 -91.1092 283° West 142 163 800 -532 Descending Chicago Center
Mon 10:28:18 AM 40.7981 -91.1406 312° West 137 158 700 -97 Descending Chicago Center

Login

Don't have an account? Register now (free) for customized features, flight alerts, and more!